Airfield :
LOGIN :

Register | Disclaimer

   EN    FR    IT 

 










Legend :    VFR   Marginal VFR   IFR   Intensive IFR   Very Intensive IFR
Visi :
Ceiling :
>= 8 km
>= 3000ft
5 to 8 km
1000 to 3000 ft
1500m to 5 km
500 to 1000 ft
800 to 1500m
200 to 500 ft
< 800m
< 200 ft
Symbols :   Thunderstorms  Fog  Heavy snow  Heavy precipitations  Wind > 20 kt
SIGMETs :     Misc.  Thunderstorms  Icing  Turbulence  Mountain Waves  Volcanic Ashes






- Airport Elevation : 250 ft


LERI - Alcantarilla

CURRENT METAR :
  • 270930Z 07003KT 030V120 9999 SCT027 OVC031 11/05 Q1027 NOSIG

EXPIRED METARs :
  • 270900Z VRB01KT 9999 OVC032 11/05 Q1027 NOSIG
  • 270830Z VRB02KT 9999 OVC032 10/05 Q1027 NOSIG
  • 270800Z 35005KT 320V020 9999 OVC034 10/05 Q1027 NOSIG
  • 270730Z 35006KT 9999 OVC033 10/05 Q1026 NOSIG
  • 270700Z 35004KT 320V020 9999 OVC034 10/06 Q1026 NOSIG
  • 270630Z 36003KT 340V050 9999 OVC030 11/06 Q1026 NOSIG

TAF TAF LERI
Valid from the 27 at 09:00 until the 28 at 09:00 UTC


270800Z 2709/2809 36004KT 9999 BKN035 TX18/2715Z TN10/2807Z
BECMG 2713/2716 08010KT
BECMG 2718/2721 01005KT



MET'MAP, your aeronautical weather chart ! - Copyright ORBIFLY December 2007 - Disclaimer

ORBIFLY MET'MAP TEAM :

Programming & Development : Alexandra Zaïnal
Concept & original design : Baudouin d'Aumeries
Assistance for programming : Marc-Olivier Méhu
Technical & hardware support : Manuel Goepfert

Contact : metmap@orbifly.com




SOURCES & CREDITS :

   NOAA